createdAt,value
2018-03-16T00:00:35.753Z,50.3
2018-03-16T00:01:25.955Z,50.3
2018-03-16T00:02:15.852Z,50.3
2018-03-16T00:03:06.374Z,50.3
2018-03-16T00:03:57.259Z,50.3
2018-03-16T00:04:46.307Z,50.3
2018-03-16T00:05:37.065Z,50.3
2018-03-16T00:06:27.147Z,50.3
2018-03-16T00:07:16.603Z,50.2
2018-03-16T00:08:07.292Z,50.2
2018-03-16T00:08:56.746Z,50.3
2018-03-16T00:09:47.349Z,50.2
2018-03-16T00:10:37.164Z,50.2
2018-03-16T00:11:27.593Z,50.2
2018-03-16T00:12:17.252Z,50.2
2018-03-16T00:13:06.914Z,50.2
2018-03-16T00:13:56.329Z,50.2
2018-03-16T00:14:47.269Z,50.2
2018-03-16T00:15:37.796Z,50.2
2018-03-16T00:16:26.775Z,50.2
2018-03-16T00:17:17.687Z,50.1
2018-03-16T00:18:06.968Z,50.1
2018-03-16T00:18:57.734Z,50.1
2018-03-16T00:19:48.103Z,50.1
2018-03-16T00:20:37.878Z,50.1
2018-03-16T00:21:26.748Z,50.1
2018-03-16T00:22:17.799Z,50.1
2018-03-16T00:23:07.160Z,50.1
2018-03-16T00:23:57.613Z,50.1
2018-03-16T00:24:47.263Z,50.1
2018-03-16T00:25:37.853Z,50.1
2018-03-16T00:26:27.893Z,50.1
2018-03-16T00:27:18.072Z,50.1
2018-03-16T00:28:07.615Z,50.1
2018-03-16T00:28:58.284Z,50.1
2018-03-16T00:29:48.227Z,50.1
2018-03-16T00:30:38.667Z,50.1
2018-03-16T00:31:28.138Z,50.1
2018-03-16T00:32:18.468Z,50.1
2018-03-16T00:33:09.017Z,50.1
2018-03-16T00:33:58.918Z,50.1
2018-03-16T00:34:48.906Z,50.1
2018-03-16T00:35:39.022Z,50.1
2018-03-16T00:36:28.703Z,50
2018-03-16T00:37:19.328Z,50
2018-03-16T00:38:09.685Z,50
2018-03-16T00:38:58.998Z,50
2018-03-16T00:39:49.104Z,50
2018-03-16T00:40:39.324Z,50
2018-03-16T00:41:28.791Z,50
2018-03-16T00:42:19.417Z,50
2018-03-16T00:43:09.186Z,50
2018-03-16T00:43:59.546Z,49.9
2018-03-16T00:44:49.882Z,49.9
2018-03-16T00:45:39.445Z,49.9
2018-03-16T00:46:29.353Z,49.9
2018-03-16T00:47:19.769Z,49.9
2018-03-16T00:48:09.535Z,49.9
2018-03-16T00:48:59.316Z,49.9
2018-03-16T00:49:49.557Z,49.9
2018-03-16T00:50:39.696Z,49.9
2018-03-16T00:51:29.608Z,49.9
2018-03-16T00:52:19.991Z,49.9
2018-03-16T00:53:09.906Z,49.9
2018-03-16T00:54:00.265Z,49.9
2018-03-16T00:54:50.586Z,49.9
2018-03-16T00:55:39.805Z,49.9
2018-03-16T00:56:30.713Z,49.9
2018-03-16T00:57:20.776Z,49.9
2018-03-16T00:58:09.699Z,49.9
2018-03-16T00:59:00.623Z,49.9
2018-03-16T00:59:50.285Z,49.9
2018-03-16T01:00:40.163Z,49.9
2018-03-16T01:01:29.633Z,49.8
2018-03-16T01:02:20.381Z,49.8
2018-03-16T01:03:10.233Z,49.8
2018-03-16T01:04:00.389Z,49.8
2018-03-16T01:04:50.523Z,49.8
2018-03-16T01:05:40.136Z,49.8
2018-03-16T01:06:31.203Z,49.8
2018-03-16T01:07:20.521Z,49.8
2018-03-16T01:08:10.516Z,49.8
2018-03-16T01:09:01.088Z,49.8
2018-03-16T01:09:51.525Z,49.8
2018-03-16T01:10:41.165Z,49.8
2018-03-16T01:11:32.000Z,49.8
2018-03-16T01:12:20.820Z,49.8
2018-03-16T01:13:11.420Z,49.8
2018-03-16T01:14:01.290Z,49.8
2018-03-16T01:14:50.473Z,49.8
2018-03-16T01:15:41.615Z,49.8
2018-03-16T01:16:31.486Z,49.8
2018-03-16T01:17:22.085Z,49.8
2018-03-16T01:18:12.574Z,49.8
2018-03-16T01:19:01.792Z,49.7
2018-03-16T01:19:51.473Z,49.7
2018-03-16T01:20:41.399Z,49.7
2018-03-16T01:21:31.261Z,49.7
2018-03-16T01:22:22.014Z,49.7
2018-03-16T01:23:12.161Z,49.7
2018-03-16T01:24:02.127Z,49.7
2018-03-16T01:24:52.173Z,49.7
2018-03-16T01:25:41.694Z,49.7
2018-03-16T01:26:32.702Z,49.7
2018-03-16T01:27:21.974Z,49.6
2018-03-16T01:28:12.042Z,49.7
2018-03-16T01:29:02.488Z,49.6
2018-03-16T01:29:52.528Z,49.6
2018-03-16T01:30:42.791Z,49.6
2018-03-16T01:31:32.916Z,49.6
2018-03-16T01:32:23.102Z,49.6
2018-03-16T01:33:12.695Z,49.6
2018-03-16T01:34:02.274Z,49.6
2018-03-16T01:34:52.899Z,49.6
2018-03-16T01:35:42.880Z,49.6
2018-03-16T01:36:32.713Z,49.6
2018-03-16T01:37:23.641Z,49.6
2018-03-16T01:38:12.460Z,49.6
2018-03-16T01:39:03.984Z,49.6
2018-03-16T01:39:53.361Z,49.6
2018-03-16T01:40:43.197Z,49.6
2018-03-16T01:41:32.818Z,49.6
2018-03-16T01:42:23.816Z,49.6
2018-03-16T01:43:13.793Z,49.5
2018-03-16T01:44:03.171Z,49.6
2018-03-16T01:44:53.888Z,49.6
2018-03-16T01:45:43.229Z,49.6
2018-03-16T01:46:34.331Z,49.5
2018-03-16T01:47:24.290Z,49.5
2018-03-16T01:48:13.346Z,49.5
2018-03-16T01:49:04.541Z,49.5
2018-03-16T01:49:53.392Z,49.5
2018-03-16T01:50:44.614Z,49.5
2018-03-16T01:51:33.548Z,49.5
2018-03-16T01:52:24.678Z,49.5
2018-03-16T01:53:14.729Z,49.5
2018-03-16T01:54:04.288Z,49.4
2018-03-16T01:54:54.283Z,49.5
2018-03-16T01:55:44.992Z,49.5
2018-03-16T01:56:34.170Z,49.4
2018-03-16T01:57:24.597Z,49.4
2018-03-16T01:58:14.067Z,49.4
2018-03-16T01:59:05.433Z,49.4
2018-03-16T01:59:54.405Z,49.4
2018-03-16T02:00:44.762Z,49.4
2018-03-16T02:01:35.602Z,49.4
2018-03-16T02:02:25.150Z,49.4
2018-03-16T02:03:14.844Z,49.4
2018-03-16T02:04:05.555Z,49.4
2018-03-16T02:04:54.365Z,49.4
2018-03-16T02:05:45.495Z,49.4
2018-03-16T02:06:34.884Z,49.4
2018-03-16T02:07:25.750Z,49.4
2018-03-16T02:08:16.150Z,49.4
2018-03-16T02:09:05.377Z,49.4
2018-03-16T02:09:56.012Z,49.4
2018-03-16T02:10:45.263Z,49.4
2018-03-16T02:11:35.915Z,49.4
2018-03-16T02:12:25.609Z,49.4
2018-03-16T02:13:15.469Z,49.4
2018-03-16T02:14:05.669Z,49.3
2018-03-16T02:14:55.285Z,49.3
2018-03-16T02:15:46.107Z,49.3
2018-03-16T02:16:35.490Z,49.3
2018-03-16T02:17:26.442Z,49.3
2018-03-16T02:18:16.616Z,49.3
2018-03-16T02:19:05.600Z,49.3
2018-03-16T02:19:56.550Z,49.3
2018-03-16T02:20:46.511Z,49.3
2018-03-16T02:21:37.034Z,49.3
2018-03-16T02:22:26.115Z,49.3
2018-03-16T02:23:17.246Z,49.3
2018-03-16T02:24:07.231Z,49.3
2018-03-16T02:24:57.574Z,49.3
2018-03-16T02:25:47.353Z,49.3
2018-03-16T02:26:37.091Z,49.3
2018-03-16T02:27:26.191Z,49.3
2018-03-16T02:28:17.841Z,49.3
2018-03-16T02:29:07.111Z,49.3
2018-03-16T02:29:56.870Z,49.3
2018-03-16T02:30:46.918Z,49.3
2018-03-16T02:31:36.386Z,49.2
2018-03-16T02:32:27.328Z,49.2
2018-03-16T02:33:17.322Z,49.2
2018-03-16T02:34:06.594Z,49.2
2018-03-16T02:34:57.516Z,49.2
2018-03-16T02:35:47.296Z,49.2
2018-03-16T02:36:38.433Z,49.2
2018-03-16T02:37:27.512Z,49.2
2018-03-16T02:38:17.447Z,49.2
2018-03-16T02:39:07.706Z,49.2
2018-03-16T02:39:57.888Z,49.1
2018-03-16T02:40:48.445Z,49.2
2018-03-16T02:41:38.880Z,49.2
2018-03-16T02:42:28.061Z,49.1
2018-03-16T02:43:18.133Z,49.1
2018-03-16T02:44:07.474Z,49.1
2018-03-16T02:44:58.429Z,49.1
2018-03-16T02:45:48.712Z,49.1
2018-03-16T02:46:38.585Z,49.1
2018-03-16T02:47:28.314Z,49.1
2018-03-16T02:48:18.500Z,49.1
2018-03-16T02:49:08.830Z,49.1
2018-03-16T02:49:58.326Z,49.1
2018-03-16T02:50:49.253Z,49.1
2018-03-16T02:51:38.249Z,49.1
2018-03-16T02:52:29.147Z,49.1
2018-03-16T02:53:18.554Z,49.3
2018-03-16T02:54:08.509Z,49.4
2018-03-16T02:54:58.736Z,49.6
2018-03-16T02:55:48.822Z,49.8
2018-03-16T02:56:39.087Z,49.9
2018-03-16T02:57:28.639Z,49.9
2018-03-16T02:58:19.204Z,50.1
2018-03-16T02:59:09.262Z,50.4
2018-03-16T02:59:59.238Z,50.5
2018-03-16T03:00:49.091Z,50.7
2018-03-16T03:01:39.407Z,50.9
2018-03-16T03:02:29.708Z,51
2018-03-16T03:03:19.851Z,51.2
2018-03-16T03:04:10.409Z,51.3
2018-03-16T03:04:59.937Z,51.5
2018-03-16T03:05:49.460Z,51.6
2018-03-16T03:06:39.291Z,51.8
2018-03-16T03:07:30.343Z,52
2018-03-16T03:08:20.204Z,52.2
2018-03-16T03:09:09.950Z,52.3
2018-03-16T03:09:59.850Z,52.4
2018-03-16T03:10:49.872Z,52.7
2018-03-16T03:11:40.383Z,52.8
2018-03-16T03:12:30.140Z,53
2018-03-16T03:13:20.294Z,53.2
2018-03-16T03:14:11.068Z,53.3
2018-03-16T03:15:01.131Z,53.4
2018-03-16T03:15:50.931Z,53.6
2018-03-16T03:16:40.772Z,53.8
2018-03-16T03:17:31.043Z,54
2018-03-16T03:18:21.631Z,54.2
2018-03-16T03:19:10.885Z,54.3
2018-03-16T03:20:01.766Z,54.5
2018-03-16T03:20:51.281Z,54.6
2018-03-16T03:21:41.662Z,54.8
2018-03-16T03:22:31.111Z,55
2018-03-16T03:23:21.176Z,55.1
2018-03-16T03:24:11.503Z,55.4
2018-03-16T03:25:01.578Z,55.6
2018-03-16T03:25:52.265Z,55.7
2018-03-16T03:26:42.300Z,55.9
2018-03-16T03:27:32.115Z,56.1
2018-03-16T03:28:21.827Z,56.3
2018-03-16T03:29:12.185Z,56.4
2018-03-16T03:30:00.996Z,56.5
2018-03-16T03:30:51.473Z,56.6
2018-03-16T03:31:41.994Z,56.6
2018-03-16T03:32:31.577Z,56.6
2018-03-16T03:33:22.432Z,56.6
2018-03-16T03:34:12.673Z,56.7
2018-03-16T03:35:02.310Z,56.7
2018-03-16T03:35:52.062Z,56.7
2018-03-16T03:36:42.706Z,56.7
2018-03-16T03:37:32.463Z,56.7
2018-03-16T03:38:22.559Z,56.7
2018-03-16T03:39:12.887Z,56.7
2018-03-16T03:40:02.652Z,56.6
2018-03-16T03:40:52.697Z,56.7
2018-03-16T03:41:42.729Z,56.7
2018-03-16T03:42:33.083Z,56.7
2018-03-16T03:43:23.185Z,56.7
2018-03-16T03:44:13.507Z,56.6
2018-03-16T03:45:03.578Z,56.7
2018-03-16T03:45:53.630Z,56.6
2018-03-16T03:46:43.106Z,56.7
2018-03-16T03:47:33.717Z,56.7
2018-03-16T03:48:23.828Z,56.6
2018-03-16T03:49:13.309Z,56.6
2018-03-16T03:50:03.349Z,56.6
2018-03-16T03:50:53.729Z,56.6
2018-03-16T03:51:43.190Z,56.6
2018-03-16T03:52:32.978Z,56.6
2018-03-16T03:53:23.568Z,56.7
2018-03-16T03:54:14.290Z,56.6
2018-03-16T03:55:04.013Z,56.6
2018-03-16T03:55:54.321Z,56.6
2018-03-16T03:56:44.168Z,56.6
2018-03-16T03:57:33.906Z,56.6
2018-03-16T03:58:24.521Z,56.6
2018-03-16T03:59:14.583Z,56.6
2018-03-16T04:00:04.384Z,56.6
2018-03-16T04:00:54.473Z,56.6
2018-03-16T04:01:43.904Z,56.6
2018-03-16T04:02:33.987Z,56.6
2018-03-16T04:03:23.283Z,56.6
2018-03-16T04:04:13.853Z,56.6
2018-03-16T04:05:03.702Z,56.6
2018-03-16T04:05:55.025Z,56.6
2018-03-16T04:06:44.163Z,56.6
2018-03-16T04:07:34.146Z,56.6
2018-03-16T04:08:24.770Z,56.6
2018-03-16T04:09:14.062Z,56.6
2018-03-16T04:10:05.368Z,56.6
2018-03-16T04:10:54.544Z,56.6
2018-03-16T04:11:45.471Z,56.6
2018-03-16T04:12:35.024Z,56.6
2018-03-16T04:13:25.030Z,56.5
2018-03-16T04:14:15.508Z,56.6
2018-03-16T04:15:05.727Z,56.5
2018-03-16T04:15:55.260Z,56.5
2018-03-16T04:16:45.550Z,56.5
2018-03-16T04:17:35.358Z,56.5
2018-03-16T04:18:25.129Z,56.5
2018-03-16T04:19:16.037Z,56.5
2018-03-16T04:20:05.062Z,56.5
2018-03-16T04:20:54.805Z,56.5
2018-03-16T04:21:45.170Z,56.5
2018-03-16T04:22:35.794Z,56.5
2018-03-16T04:23:24.812Z,56.5
2018-03-16T04:24:15.627Z,56.4
2018-03-16T04:25:20.437Z,56.4
2018-03-16T04:25:55.225Z,56.5
2018-03-16T04:26:45.507Z,56.4
2018-03-16T04:27:35.658Z,56.4
2018-03-16T04:28:26.004Z,56.4
2018-03-16T04:29:15.822Z,56.4
2018-03-16T04:30:06.619Z,56.4
2018-03-16T04:30:55.877Z,56.4
2018-03-16T04:31:45.677Z,56.4
2018-03-16T04:32:35.847Z,56.4
2018-03-16T04:33:26.506Z,56.4
2018-03-16T04:34:14.517Z,56.4
2018-03-16T04:35:06.418Z,56.4
2018-03-16T04:35:56.672Z,56.4
2018-03-16T04:36:46.029Z,56.4
2018-03-16T04:37:36.499Z,56.4
2018-03-16T04:38:26.531Z,56.4
2018-03-16T04:39:16.113Z,56.4
2018-03-16T04:40:06.490Z,56.4
2018-03-16T04:40:56.816Z,56.4
2018-03-16T04:41:47.390Z,56.4
2018-03-16T04:42:36.580Z,56.4
2018-03-16T04:43:26.955Z,56.4
2018-03-16T04:44:16.408Z,56.4
2018-03-16T04:45:07.726Z,56.3
2018-03-16T04:45:57.193Z,56.4
2018-03-16T04:46:46.840Z,56.3
2018-03-16T04:47:37.041Z,56.3
2018-03-16T04:48:26.297Z,56.4
2018-03-16T04:49:17.252Z,56.3
2018-03-16T04:50:07.189Z,56.3
2018-03-16T04:50:57.735Z,56.3
2018-03-16T04:51:47.340Z,56.3
2018-03-16T04:52:37.302Z,56.3
2018-03-16T04:53:27.014Z,56.3
2018-03-16T04:54:17.199Z,56.3
2018-03-16T04:55:08.139Z,56.3
2018-03-16T04:55:57.765Z,56.3
2018-03-16T04:56:46.979Z,56.3
2018-03-16T04:57:38.228Z,56.3
2018-03-16T04:58:27.478Z,56.3
2018-03-16T04:59:16.857Z,56.3
2018-03-16T05:00:07.203Z,56.3
2018-03-16T05:00:57.861Z,56.3
2018-03-16T05:01:47.546Z,56.3
2018-03-16T05:02:38.096Z,56.3
2018-03-16T05:03:28.223Z,56.3
2018-03-16T05:04:18.214Z,56.3
2018-03-16T05:05:08.146Z,56.3
2018-03-16T05:05:59.147Z,56.3
2018-03-16T05:06:48.243Z,56.2
2018-03-16T05:07:38.707Z,56.2
2018-03-16T05:08:28.406Z,56.3
2018-03-16T05:09:18.468Z,56.2
2018-03-16T05:10:08.526Z,56.2
2018-03-16T05:10:58.970Z,56.2
2018-03-16T05:11:48.931Z,56.2
2018-03-16T05:12:38.303Z,56.2
2018-03-16T05:13:29.638Z,56.2
2018-03-16T05:14:19.197Z,56.2
2018-03-16T05:15:08.403Z,56.2
2018-03-16T05:15:58.922Z,56.2
2018-03-16T05:16:50.141Z,56.1
2018-03-16T05:17:39.628Z,56.1
2018-03-16T05:18:29.377Z,56.1
2018-03-16T05:19:19.269Z,56.1
2018-03-16T05:20:09.336Z,56.1
2018-03-16T05:20:59.260Z,56.1
2018-03-16T05:21:49.226Z,56.1
2018-03-16T05:22:39.599Z,56.1
2018-03-16T05:23:29.866Z,56.1
2018-03-16T05:24:19.711Z,56.1
2018-03-16T05:25:08.891Z,56.1
2018-03-16T05:26:00.044Z,56.1
2018-03-16T05:26:50.092Z,56.1
2018-03-16T05:27:40.905Z,56.1
2018-03-16T05:28:30.416Z,56.1
2018-03-16T05:29:20.055Z,56.1
2018-03-16T05:30:10.242Z,56.1
2018-03-16T05:31:00.491Z,56.1
2018-03-16T05:31:49.786Z,56.1
2018-03-16T05:32:40.115Z,56
2018-03-16T05:33:30.189Z,56.1
2018-03-16T05:34:21.130Z,56
2018-03-16T05:35:10.013Z,56
2018-03-16T05:35:59.981Z,56
2018-03-16T05:36:50.516Z,56
2018-03-16T05:37:41.010Z,56
2018-03-16T05:38:30.626Z,56
2018-03-16T05:39:20.603Z,56
2018-03-16T05:40:11.020Z,56
2018-03-16T05:41:00.231Z,56
2018-03-16T05:41:50.870Z,56
2018-03-16T05:42:41.662Z,56
2018-03-16T05:43:32.015Z,55.9
2018-03-16T05:44:22.055Z,55.9
2018-03-16T05:45:11.878Z,55.9
2018-03-16T05:46:02.230Z,55.9
2018-03-16T05:46:51.981Z,55.9
2018-03-16T05:47:42.313Z,55.9
2018-03-16T05:48:32.137Z,55.9
2018-03-16T05:49:22.132Z,55.9
2018-03-16T05:50:12.502Z,55.9
2018-03-16T05:51:02.535Z,55.9
2018-03-16T05:51:52.322Z,55.9
2018-03-16T05:52:42.408Z,55.9
2018-03-16T05:53:32.152Z,55.9
2018-03-16T05:54:22.245Z,55.9
2018-03-16T05:55:12.354Z,55.9
2018-03-16T05:56:02.901Z,55.9
2018-03-16T05:56:52.419Z,55.9
2018-03-16T05:57:42.179Z,55.9
2018-03-16T05:58:31.969Z,55.9
2018-03-16T05:59:22.874Z,55.9
2018-03-16T06:00:11.889Z,55.9
2018-03-16T06:01:02.315Z,55.9
2018-03-16T06:01:52.470Z,55.9
2018-03-16T06:02:42.619Z,55.8
2018-03-16T06:03:32.116Z,55.8
2018-03-16T06:04:22.442Z,55.8
2018-03-16T06:05:12.721Z,55.8
2018-03-16T06:06:02.581Z,55.8
2018-03-16T06:06:52.887Z,55.8
2018-03-16T06:07:42.924Z,55.8
2018-03-16T06:08:33.263Z,55.8
2018-03-16T06:09:23.351Z,55.8
2018-03-16T06:10:13.078Z,55.8
2018-03-16T06:11:03.256Z,55.8
2018-03-16T06:11:52.998Z,55.8
2018-03-16T06:12:42.684Z,55.8
2018-03-16T06:13:33.684Z,55.8
2018-03-16T06:14:23.692Z,55.8
2018-03-16T06:15:13.634Z,55.8
2018-03-16T06:16:02.808Z,55.8
2018-03-16T06:16:53.620Z,55.8
2018-03-16T06:17:44.286Z,55.8
2018-03-16T06:18:33.478Z,55.8
2018-03-16T06:19:23.340Z,55.8
2018-03-16T06:20:13.698Z,55.7
2018-03-16T06:21:03.376Z,55.8
2018-03-16T06:21:53.498Z,55.7
2018-03-16T06:22:43.363Z,55.7
2018-03-16T06:23:33.463Z,55.7
2018-03-16T06:24:24.473Z,55.7
2018-03-16T06:25:14.426Z,55.7
2018-03-16T06:26:04.571Z,55.7
2018-03-16T06:26:54.454Z,55.7
2018-03-16T06:27:44.113Z,55.7
2018-03-16T06:28:34.745Z,55.6
2018-03-16T06:29:24.437Z,55.6
2018-03-16T06:30:14.495Z,55.6
2018-03-16T06:31:04.259Z,55.6
2018-03-16T06:31:54.642Z,55.6
2018-03-16T06:32:44.192Z,55.6
2018-03-16T06:33:35.154Z,55.6
2018-03-16T06:34:25.389Z,55.6
2018-03-16T06:35:14.161Z,55.6
2018-03-16T06:36:05.169Z,55.6
2018-03-16T06:36:54.971Z,55.6
2018-03-16T06:37:45.062Z,55.6
2018-03-16T06:38:34.889Z,55.5
2018-03-16T06:39:25.104Z,55.5
2018-03-16T06:40:14.534Z,55.5
2018-03-16T06:41:05.722Z,55.5
2018-03-16T06:41:55.627Z,55.5
2018-03-16T06:42:44.794Z,55.5
2018-03-16T06:43:36.036Z,55.5
2018-03-16T06:44:25.388Z,55.5
2018-03-16T06:45:15.586Z,55.5
2018-03-16T06:46:05.622Z,55.5
2018-03-16T06:46:55.693Z,55.5
2018-03-16T06:47:46.586Z,55.4
2018-03-16T06:48:35.797Z,55.4
2018-03-16T06:49:26.443Z,55.4
2018-03-16T06:50:16.753Z,55.4
2018-03-16T06:51:06.538Z,55.4
2018-03-16T06:51:56.220Z,55.4
2018-03-16T06:52:46.071Z,55.4
2018-03-16T06:53:35.674Z,55.4
2018-03-16T06:54:26.216Z,55.4
2018-03-16T06:55:16.274Z,55.4
2018-03-16T06:56:06.301Z,55.4
2018-03-16T06:56:56.073Z,55.4
2018-03-16T06:57:46.559Z,55.4
2018-03-16T06:58:36.114Z,55.4
2018-03-16T06:59:26.789Z,55.4
2018-03-16T07:00:15.761Z,55.4
2018-03-16T07:01:06.772Z,55.4
2018-03-16T07:01:56.248Z,55.4
2018-03-16T07:02:46.289Z,55.4
2018-03-16T07:03:36.735Z,55.4
2018-03-16T07:04:26.912Z,55.4
2018-03-16T07:05:17.042Z,55.3
2018-03-16T07:06:07.303Z,55.3
2018-03-16T07:06:57.958Z,55.3
2018-03-16T07:07:46.666Z,55.3
2018-03-16T07:08:37.168Z,55.3
2018-03-16T07:09:27.177Z,55.3
2018-03-16T07:10:17.070Z,55.3
2018-03-16T07:11:07.554Z,55.3
2018-03-16T07:11:57.532Z,55.3
2018-03-16T07:12:47.482Z,55.3
2018-03-16T07:13:37.826Z,55.3
2018-03-16T07:14:26.172Z,55.3
2018-03-16T07:15:17.113Z,55.3
2018-03-16T07:16:07.249Z,55.3
2018-03-16T07:16:57.210Z,55.3
2018-03-16T07:17:47.457Z,55.3
2018-03-16T07:18:38.488Z,55.3
2018-03-16T07:19:28.275Z,55.3
2018-03-16T07:20:17.777Z,55.3
2018-03-16T07:21:08.106Z,55.3
2018-03-16T07:21:57.686Z,55.3
2018-03-16T07:22:48.041Z,55.3
2018-03-16T07:23:37.989Z,55.2
2018-03-16T07:24:28.026Z,55.2
2018-03-16T07:25:18.214Z,55.2
2018-03-16T07:26:08.556Z,55.3
2018-03-16T07:26:58.531Z,55.2
2018-03-16T07:27:48.184Z,55.2
2018-03-16T07:28:38.601Z,55.2
2018-03-16T07:29:28.787Z,55.2
2018-03-16T07:30:18.861Z,55.2
2018-03-16T07:31:08.901Z,55.2
2018-03-16T07:31:58.568Z,55.2
2018-03-16T07:32:49.460Z,55.1
2018-03-16T07:33:38.506Z,55.1
2018-03-16T07:34:28.491Z,55.1
2018-03-16T07:35:18.810Z,55.1
2018-03-16T07:36:09.449Z,55.1
2018-03-16T07:36:58.912Z,55.1
2018-03-16T07:37:49.193Z,55.1
2018-03-16T07:38:39.169Z,55.1
2018-03-16T07:39:29.948Z,55.1
2018-03-16T07:40:20.003Z,55.1
2018-03-16T07:41:10.442Z,55.1
2018-03-16T07:41:59.679Z,55.1
2018-03-16T07:42:50.648Z,55.1
2018-03-16T07:43:40.251Z,55.1
2018-03-16T07:44:29.456Z,55.1
2018-03-16T07:45:20.069Z,55.1
2018-03-16T07:46:10.422Z,55.1
2018-03-16T07:47:00.828Z,55.1
2018-03-16T07:47:49.970Z,55.1
2018-03-16T07:48:40.188Z,55.1
2018-03-16T07:49:30.218Z,55
2018-03-16T07:50:20.261Z,55
2018-03-16T07:51:09.717Z,55
2018-03-16T07:52:00.317Z,55
2018-03-16T07:52:49.281Z,55
2018-03-16T07:53:40.024Z,55
2018-03-16T07:54:29.815Z,55
2018-03-16T07:55:20.855Z,55
2018-03-16T07:56:10.911Z,55
2018-03-16T07:57:01.238Z,55
2018-03-16T07:57:51.085Z,55
2018-03-16T07:58:41.601Z,55
2018-03-16T07:59:31.386Z,55
2018-03-16T08:00:20.886Z,54.9
2018-03-16T08:01:11.892Z,54.9
2018-03-16T08:02:01.583Z,54.9
2018-03-16T08:02:51.320Z,54.9
2018-03-16T08:03:41.690Z,54.9
2018-03-16T08:04:31.716Z,54.9
2018-03-16T08:05:21.533Z,54.9
2018-03-16T08:06:11.581Z,54.9
2018-03-16T08:07:02.242Z,54.9
2018-03-16T08:07:52.240Z,54.9
2018-03-16T08:08:42.100Z,54.9
2018-03-16T08:09:32.412Z,54.9
2018-03-16T08:10:22.142Z,54.9
2018-03-16T08:11:12.199Z,54.9
2018-03-16T08:12:01.997Z,54.9
2018-03-16T08:12:52.043Z,54.9
2018-03-16T08:13:42.691Z,54.9
2018-03-16T08:14:32.443Z,54.9
2018-03-16T08:15:23.391Z,54.9
2018-03-16T08:16:12.839Z,54.9
2018-03-16T08:17:02.349Z,54.9
2018-03-16T08:17:52.991Z,54.8
2018-03-16T08:18:42.768Z,54.8
2018-03-16T08:19:32.805Z,54.8
2018-03-16T08:20:22.868Z,54.8
2018-03-16T08:21:12.929Z,54.8
2018-03-16T08:22:02.683Z,54.8
2018-03-16T08:22:53.294Z,54.8
2018-03-16T08:23:43.097Z,54.8
2018-03-16T08:24:33.476Z,54.8
2018-03-16T08:25:23.480Z,54.8
2018-03-16T08:26:13.543Z,54.8
2018-03-16T08:27:03.352Z,54.8
2018-03-16T08:27:53.106Z,54.8
2018-03-16T08:28:43.459Z,54.8
2018-03-16T08:29:33.288Z,54.8
2018-03-16T08:30:23.891Z,54.8
2018-03-16T08:31:13.999Z,54.8
2018-03-16T08:32:03.413Z,54.8
2018-03-16T08:32:53.756Z,54.8
2018-03-16T08:33:43.840Z,54.8
2018-03-16T08:34:34.160Z,54.8
2018-03-16T08:35:23.080Z,54.8
2018-03-16T08:36:14.001Z,54.7
2018-03-16T08:37:04.315Z,54.7
2018-03-16T08:37:53.907Z,54.7
2018-03-16T08:38:44.470Z,54.7
2018-03-16T08:39:33.708Z,54.7
2018-03-16T08:40:23.595Z,54.7
2018-03-16T08:41:14.056Z,54.7
2018-03-16T08:42:04.412Z,54.7
2018-03-16T08:42:53.619Z,54.7
2018-03-16T08:43:43.399Z,54.7
2018-03-16T08:44:33.629Z,54.6
2018-03-16T08:45:23.885Z,54.7
2018-03-16T08:46:14.302Z,54.6
2018-03-16T08:47:03.620Z,54.6
2018-03-16T08:47:53.385Z,54.6
2018-03-16T08:48:43.912Z,54.6
2018-03-16T08:49:34.957Z,54.6
2018-03-16T08:50:23.652Z,54.6
2018-03-16T08:51:13.942Z,54.6
2018-03-16T08:52:03.867Z,54.6
2018-03-16T08:52:55.317Z,54.6
2018-03-16T08:53:44.704Z,54.6
2018-03-16T08:54:34.926Z,54.6
2018-03-16T08:55:24.774Z,54.6
2018-03-16T08:56:15.427Z,54.6
2018-03-16T08:57:05.215Z,54.6
2018-03-16T08:57:53.807Z,54.6
2018-03-16T08:58:44.754Z,54.6
2018-03-16T08:59:35.532Z,54.6
2018-03-16T09:00:25.458Z,54.6
2018-03-16T09:01:15.334Z,54.5
2018-03-16T09:02:04.774Z,54.5
2018-03-16T09:02:54.516Z,54.5
2018-03-16T09:03:45.596Z,54.5
2018-03-16T09:04:34.650Z,54.5
2018-03-16T09:05:24.854Z,54.5
2018-03-16T09:06:15.496Z,54.5
2018-03-16T09:07:05.129Z,54.5
2018-03-16T09:07:54.913Z,54.5
2018-03-16T09:08:46.097Z,54.4
2018-03-16T09:09:36.418Z,54.4
2018-03-16T09:10:25.745Z,54.5
2018-03-16T09:11:15.938Z,54.4
2018-03-16T09:12:06.033Z,54.4
2018-03-16T09:12:56.643Z,54.4
2018-03-16T09:13:45.908Z,54.4
2018-03-16T09:14:36.655Z,54.4
2018-03-16T09:15:25.700Z,54.4
2018-03-16T09:16:16.311Z,54.4
2018-03-16T09:17:06.653Z,54.4
2018-03-16T09:17:56.575Z,54.4
2018-03-16T09:18:46.450Z,54.4
2018-03-16T09:19:36.259Z,54.4
2018-03-16T09:20:25.989Z,54.4
2018-03-16T09:21:16.953Z,54.4
2018-03-16T09:22:07.287Z,54.4
2018-03-16T09:22:56.775Z,54.4
2018-03-16T09:23:47.185Z,54.4
2018-03-16T09:24:36.284Z,54.4
2018-03-16T09:25:26.765Z,54.4
2018-03-16T09:26:16.606Z,54.4
2018-03-16T09:27:06.966Z,54.3
2018-03-16T09:27:56.924Z,54.3
2018-03-16T09:28:47.004Z,54.3
2018-03-16T09:29:37.128Z,54.3
2018-03-16T09:30:27.030Z,54.3
2018-03-16T09:31:17.372Z,54.3
2018-03-16T09:32:07.814Z,54.3
2018-03-16T09:32:57.059Z,54.3
2018-03-16T09:33:48.137Z,54.3
2018-03-16T09:34:37.487Z,54.3
2018-03-16T09:35:27.965Z,54.3
2018-03-16T09:36:17.480Z,54.3
2018-03-16T09:37:07.880Z,54.3
2018-03-16T09:37:56.940Z,54.3
2018-03-16T09:38:47.684Z,54.3
2018-03-16T09:39:38.132Z,54.3
2018-03-16T09:40:28.110Z,54.3
2018-03-16T09:41:17.863Z,54.3
2018-03-16T09:42:07.127Z,54.3
2018-03-16T09:42:57.505Z,54.2
2018-03-16T09:43:47.791Z,54.2
2018-03-16T09:44:38.394Z,54.2
2018-03-16T09:45:28.377Z,54.2
2018-03-16T09:46:18.143Z,54.2
2018-03-16T09:47:07.474Z,54.2
2018-03-16T09:47:58.494Z,54.2
2018-03-16T09:48:48.681Z,54.2
2018-03-16T09:49:38.981Z,54.2
2018-03-16T09:50:28.788Z,54.2
2018-03-16T09:51:18.608Z,54.2
2018-03-16T09:52:07.744Z,54.2
2018-03-16T09:52:59.191Z,54.1
2018-03-16T09:53:48.573Z,54.2
2018-03-16T09:54:38.382Z,54.1
2018-03-16T09:55:28.966Z,54.1
2018-03-16T09:56:19.137Z,54.1
2018-03-16T09:57:09.193Z,54.1
2018-03-16T09:57:59.056Z,54.1
2018-03-16T09:58:48.742Z,54.1
2018-03-16T09:59:38.472Z,54.1
2018-03-16T10:00:28.627Z,54.1
2018-03-16T10:01:18.672Z,54.1
2018-03-16T10:02:09.499Z,54.1
2018-03-16T10:02:58.734Z,54.1
2018-03-16T10:03:49.158Z,54.1
2018-03-16T10:04:39.434Z,54.1
2018-03-16T10:05:28.985Z,54.1
2018-03-16T10:06:19.334Z,54
2018-03-16T10:07:08.530Z,54
2018-03-16T10:07:59.976Z,54
2018-03-16T10:08:49.408Z,54
2018-03-16T10:09:39.196Z,54
2018-03-16T10:10:29.448Z,54
2018-03-16T10:11:20.107Z,54
2018-03-16T10:12:10.744Z,54
2018-03-16T10:13:00.898Z,54
2018-03-16T10:13:50.677Z,54
2018-03-16T10:14:40.201Z,54
2018-03-16T10:15:31.037Z,53.9
2018-03-16T10:16:21.355Z,53.9
2018-03-16T10:17:10.893Z,53.9
2018-03-16T10:18:00.440Z,53.9
2018-03-16T10:18:50.114Z,53.9
2018-03-16T10:19:40.298Z,53.9
2018-03-16T10:20:30.419Z,53.9
2018-03-16T10:21:20.411Z,53.9
2018-03-16T10:22:10.406Z,53.9
2018-03-16T10:23:01.101Z,53.9
2018-03-16T10:23:50.634Z,53.9
2018-03-16T10:24:41.263Z,53.9
2018-03-16T10:25:30.996Z,53.9
2018-03-16T10:26:20.058Z,53.9
2018-03-16T10:27:10.213Z,53.9
2018-03-16T10:28:01.685Z,53.9
2018-03-16T10:28:51.304Z,53.9
2018-03-16T10:29:41.789Z,53.9
2018-03-16T10:30:30.821Z,53.9
2018-03-16T10:31:21.489Z,53.9
2018-03-16T10:32:11.764Z,53.9
2018-03-16T10:33:01.755Z,53.9
2018-03-16T10:33:51.504Z,53.9
2018-03-16T10:34:41.899Z,53.8
2018-03-16T10:35:31.715Z,53.8
2018-03-16T10:36:22.357Z,53.8
2018-03-16T10:37:11.854Z,53.8
2018-03-16T10:38:02.077Z,53.8
2018-03-16T10:38:51.870Z,53.8
2018-03-16T10:39:41.699Z,53.8
2018-03-16T10:40:32.272Z,53.8
2018-03-16T10:41:21.535Z,53.8
2018-03-16T10:42:12.268Z,53.8
2018-03-16T10:43:02.245Z,53.8
2018-03-16T10:43:53.106Z,53.8
2018-03-16T10:44:42.720Z,53.8
2018-03-16T10:45:32.283Z,53.8
2018-03-16T10:46:22.460Z,53.8
2018-03-16T10:47:13.336Z,53.8
2018-03-16T10:48:03.005Z,53.8
2018-03-16T10:48:51.828Z,53.8
2018-03-16T10:49:42.733Z,53.8
2018-03-16T10:50:32.688Z,53.8
2018-03-16T10:51:22.764Z,53.7
2018-03-16T10:52:13.088Z,53.8
2018-03-16T10:53:02.580Z,53.7
2018-03-16T10:53:53.507Z,53.7
2018-03-16T10:54:43.270Z,53.7
2018-03-16T10:55:33.520Z,53.7
2018-03-16T10:56:23.677Z,53.7
2018-03-16T10:57:13.242Z,53.7
2018-03-16T10:58:03.100Z,53.7
2018-03-16T10:58:53.419Z,53.7
2018-03-16T10:59:43.632Z,53.7
2018-03-16T11:00:33.284Z,53.7
2018-03-16T11:01:24.122Z,53.7
2018-03-16T11:02:14.086Z,53.6
2018-03-16T11:03:03.519Z,53.6
2018-03-16T11:03:53.457Z,53.6
2018-03-16T11:04:43.719Z,53.6
2018-03-16T11:05:33.849Z,53.6
2018-03-16T11:06:24.492Z,53.6
2018-03-16T11:07:13.657Z,53.6
2018-03-16T11:08:04.117Z,53.6
2018-03-16T11:08:54.597Z,53.6